Terminal Aerodrome Forecast
Issued by NWS Wakefield, VA

Home | Current Version | Previous Version | Text Only | Print | Product List | Glossary On
Versions: 1 2 3 4 5 6 7 8 9 10 11 12 13 14 15 16 17 18 19
000
FTUS41 KAKQ 251308 AAA
TAFECG
TAF AMD
KECG 251308Z 2513/2612 26005KT P6SM SCT007 BKN080
     FM251500 32005KT P6SM SCT050
     FM252300 33003KT P6SM SCT150=

USA.gov is the U.S. government's official web portal to all federal, state and local government web resources and services.